Del Rio International Airport
KDRT : rendu visible

Aérodrome :











RETROUVEZ-NOUS SUR...

 
LOGIN :

S'inscrire | Disclaimer

   EN    FR    IT 

 









Légende :    VFR   VFR Marginal   IFR   IFR Intensif   IFR Très Intensif
Visi : 
Plafond : 
>= 8 km
>= 3000ft
5 à 8 km
1000 à 3000 ft
1500m à 5 km
500 à 1000 ft
800 à 1500m
200 à 500 ft
< 800m
< 200 ft
Symboles :   Orages  Brouillard  Fortes neiges  Fortes précipitations  Vent > 20 kt






- Altitude de l'aérodrome : 1002 ft


KDRT - Del Rio International

DERNIER METAR :
  • 100753Z AUTO 34012G18KT 10SM OVC065 17/05 A3001 RMK AO2 SLP147 T01720050

METARs EXPIRÉS :
  • 100653Z AUTO 32006KT 10SM OVC070 18/06 A2998 RMK AO2 SLP138 T01830061
  • 100553Z AUTO 34007KT 10SM OVC065 19/06 A2997 RMK AO2 SLP135 T01890061 10256 20189 403110122 51012

TAF KDRT
Valide du 10 à 06h jusqu'au 11 à 06h UTC


100520Z 1006/1106 01015KT P6SM VCSH BKN070
FM100800 34013KT P6SM -RA OVC015
FM101900 32008KT P6SM OVC030
FM110000 36006KT P6SM SCT045



MET'MAP, la Météo Aéronautique d'un coup d'oeil ! - Copyright ORBIFLY Décembre 2007 - Disclaimer

ORBIFLY MET'MAP TEAM :

Programmation & Développement : Alexandra Zaïnal
Sur une idée originale de : Baudouin d'Aumeries
Assistance à la programmation : Marc-Olivier Méhu
Soutien technique & logistique : Manuel Goepfert

Contact : metmap@orbifly.com




SOURCES & CREDITS :

   NOAA       Earth
Advisory